Time;durP1;ratioP1;P1;durP2;ratioP2;P2;SDS_P1;SDS_P2;PMS_P1;PMS_P2;Temp;Humidity;BMP_temperature;BMP_pressure;BME280_temperature;BME280_humidity;BME280_pressure;Samples;Min_cycle;Max_cycle;Signal;HPM_P1;HPM_P2
2022/03/07 00:01:14;;;;;;;;;65.67;49.00;;;;;6.88;40.78;101844.47;4988903;28;45797;-74
2022/03/07 00:03:39;;;;;;;;;63.67;48.00;;;;;6.99;40.40;101863.06;4996213;28;45589;-72
2022/03/07 00:06:05;;;;;;;;;56.75;45.75;;;;;6.80;40.61;101819.88;5011926;28;47240;-70
2022/03/07 00:08:31;;;;;;;;;63.33;46.33;;;;;7.08;40.90;101859.91;4994645;28;45390;-76
2022/03/07 00:10:57;;;;;;;;;65.00;49.67;;;;;6.87;40.15;101828.78;4994216;28;45901;-75
2022/03/07 00:13:23;;;;;;;;;65.00;49.67;;;;;6.88;40.86;101841.88;4987637;28;45687;-75
2022/03/07 00:15:49;;;;;;;;;65.00;48.00;;;;;6.84;40.42;101842.59;4980510;28;46644;-74
2022/03/07 00:18:15;;;;;;;;;65.00;51.33;;;;;6.98;40.30;101874.31;5011017;28;45505;-74
2022/03/07 00:20:40;;;;;;;;;65.00;49.00;;;;;6.90;41.26;101871.44;4990880;28;45401;-75
2022/03/07 00:23:07;;;;;;;;;57.33;45.00;;;;;6.96;41.16;101874.25;4993785;28;45481;-75
2022/03/07 00:25:32;;;;;;;;;55.00;45.00;;;;;6.93;41.58;101855.94;4978144;28;45518;-77
2022/03/07 00:27:58;;;;;;;;;59.50;46.75;;;;;7.05;40.79;101873.72;4980496;28;45482;-76
2022/03/07 00:30:24;;;;;;;;;53.75;42.25;;;;;7.03;40.94;101848.44;4985980;28;45743;-77
2022/03/07 00:32:49;;;;;;;;;56.50;45.25;;;;;7.18;41.40;101881.09;5003723;28;45575;-76
2022/03/07 00:35:16;;;;;;;;;59.33;45.33;;;;;7.23;41.46;101878.63;4980271;28;45415;-76
2022/03/07 00:37:41;;;;;;;;;56.50;44.25;;;;;7.25;40.86;101882.19;4993225;28;45573;-77
2022/03/07 00:40:09;;;;;;;;;56.00;42.50;;;;;7.23;40.87;101866.50;4994509;28;45878;-76
2022/03/07 00:42:37;;;;;;;;;53.25;43.00;;;;;7.22;41.02;101862.13;4977796;28;45676;-76
2022/03/07 00:45:05;;;;;;;;;58.25;45.75;;;;;7.10;40.87;101853.03;4994965;28;47199;-76
2022/03/07 00:47:31;;;;;;;;;63.33;48.67;;;;;7.25;40.26;101884.78;4979071;28;45347;-76
2022/03/07 00:49:57;;;;;;;;;57.67;46.33;;;;;7.10;40.92;101868.66;4979396;28;45399;-76
2022/03/07 00:52:23;;;;;;;;;62.00;46.33;;;;;7.15;41.10;101883.59;4995835;28;45297;-76
2022/03/07 00:54:48;;;;;;;;;59.00;47.00;;;;;7.16;40.73;101884.47;4982067;28;46226;-75
2022/03/07 00:57:17;;;;;;;;;60.50;46.00;;;;;7.00;41.52;101846.63;4992628;28;45881;-76
2022/03/07 00:59:43;;;;;;;;;56.25;42.00;;;;;7.14;40.42;101865.28;4984445;28;45530;-75
2022/03/07 01:02:10;;;;;;;;;52.50;42.00;;;;;7.22;41.21;101882.97;4994700;28;45466;-76
2022/03/07 01:04:36;;;;;;;;;55.25;45.50;;;;;7.08;40.47;101865.97;5000170;28;45546;-75
2022/03/07 01:07:02;;;;;;;;;60.50;47.00;;;;;7.03;41.20;101861.47;4985986;28;45377;-73
2022/03/07 01:09:27;;;;;;;;;64.33;48.33;;;;;6.96;40.82;101873.38;4989105;28;45493;-77
2022/03/07 01:11:53;;;;;;;;;62.00;46.67;;;;;6.57;41.44;101829.47;4983632;28;45507;-76
2022/03/07 01:14:19;;;;;;;;;61.25;47.50;;;;;6.86;41.11;101879.06;4998934;28;45396;-76
2022/03/07 01:16:46;;;;;;;;;60.00;47.67;;;;;6.56;41.30;101838.13;4999520;28;45385;-75
2022/03/07 01:19:12;;;;;;;;;63.00;46.67;;;;;6.72;41.69;101876.88;5003018;28;45335;-71
2022/03/07 01:21:39;;;;;;;;;59.67;46.67;;;;;6.57;41.38;101866.81;5001144;28;45895;-74
2022/03/07 01:24:08;;;;;;;;;51.33;44.00;;;;;6.67;41.58;101873.25;4997689;28;45522;-73
2022/03/07 01:26:35;;;;;;;;;57.75;43.75;;;;;6.68;41.42;101861.09;5016946;28;45608;-75
2022/03/07 01:29:00;;;;;;;;;53.75;44.00;;;;;6.56;42.15;101838.13;4984675;28;45534;-75
2022/03/07 01:31:26;;;;;;;;;51.75;41.25;;;;;6.73;41.85;101857.81;4992596;28;45611;-77
2022/03/07 01:33:55;;;;;;;;;57.33;45.00;;;;;6.49;41.96;101826.59;4982932;28;45796;-76
2022/03/07 01:36:22;;;;;;;;;53.75;43.75;;;;;6.42;41.89;101806.38;4992790;28;45679;-77
2022/03/07 01:38:49;;;;;;;;;56.75;42.75;;;;;6.42;41.97;101802.91;4977135;28;45610;-77
2022/03/07 01:41:15;;;;;;;;;58.00;44.33;;;;;6.62;41.70;101846.16;4985413;28;45829;-75
2022/03/07 01:43:41;;;;;;;;;62.75;45.25;;;;;6.57;41.92;101842.47;4996716;28;45422;-75
2022/03/07 01:46:09;;;;;;;;;55.00;45.00;;;;;6.51;41.56;101848.34;4976037;28;45485;-74
2022/03/07 01:48:36;;;;;;;;;60.67;47.00;;;;;6.42;42.12;101860.16;4990684;28;45571;-75
2022/03/07 01:51:02;;;;;;;;;58.67;46.00;;;;;6.30;41.98;101843.25;5005770;28;45454;-70
2022/03/07 01:53:28;;;;;;;;;57.67;44.67;;;;;6.40;42.00;101859.19;4999088;28;45517;-76
2022/03/07 01:55:57;;;;;;;;;53.50;43.25;;;;;6.39;42.09;101862.66;4988074;28;46109;-74
2022/03/07 01:58:23;;;;;;;;;53.75;43.50;;;;;6.29;42.25;101844.09;4990755;28;45466;-70
2022/03/07 02:00:48;;;;;;;;;51.25;42.00;;;;;6.45;42.08;101857.66;4984506;28;45581;-75
2022/03/07 02:03:14;;;;;;;;;55.00;43.50;;;;;5.61;42.40;101696.75;4994332;28;45515;-72
2022/03/07 02:05:41;;;;;;;;;54.00;44.00;;;;;6.51;41.90;101850.97;4992317;28;45362;-71
2022/03/07 02:08:07;;;;;;;;;51.50;41.75;;;;;6.61;41.95;101848.69;4984594;28;45465;-71
2022/03/07 02:10:37;;;;;;;;;52.75;43.25;;;;;6.46;42.05;101829.09;4984807;28;45660;-69
2022/03/07 02:13:10;;;;;;;;;53.50;44.00;;;;;6.21;42.34;101796.06;4985917;28;45544;-71
2022/03/07 02:15:35;;;;;;;;;56.00;42.50;;;;;6.49;42.53;101843.94;4988770;28;45548;-66
2022/03/07 02:18:01;;;;;;;;;56.00;41.75;;;;;6.48;41.66;101834.38;4994408;28;45526;-72
2022/03/07 02:20:28;;;;;;;;;51.25;41.00;;;;;6.58;41.89;101844.25;4991251;28;45337;-72
2022/03/07 02:22:53;;;;;;;;;49.75;40.75;;;;;6.61;42.15;101836.56;4974891;28;45717;-68
2022/03/07 02:25:19;;;;;;;;;55.00;43.50;;;;;6.59;41.74;101833.00;4975579;28;45372;-68
2022/03/07 02:27:45;;;;;;;;;56.75;46.00;;;;;6.34;42.02;101794.81;4990015;28;45563;-70
2022/03/07 02:30:10;;;;;;;;;56.50;43.75;;;;;6.39;42.18;101805.41;4976212;28;45382;-71
2022/03/07 02:32:36;;;;;;;;;57.25;42.75;;;;;6.32;41.70;101783.47;4992451;28;46733;-72
2022/03/07 02:35:06;;;;;;;;;50.50;39.50;;;;;6.47;41.77;101811.75;4982751;28;45375;-74
2022/03/07 02:37:33;;;;;;;;;53.25;41.75;;;;;6.51;42.23;101816.25;4994344;28;45411;-72
2022/03/07 02:39:59;;;;;;;;;58.00;44.25;;;;;6.41;42.14;101803.72;4993393;28;45753;-79
2022/03/07 02:42:24;;;;;;;;;55.50;43.00;;;;;6.14;42.09;101747.25;4987910;28;46439;-76
2022/03/07 02:44:50;;;;;;;;;53.25;42.50;;;;;6.49;42.19;101817.91;4988686;28;45427;-78
2022/03/07 02:47:16;;;;;;;;;53.75;42.75;;;;;6.49;42.06;101823.09;5001742;28;45448;-70
2022/03/07 02:49:41;;;;;;;;;59.33;46.00;;;;;6.34;42.08;101806.09;4978772;28;45320;-74
2022/03/07 02:52:08;;;;;;;;;56.50;44.00;;;;;6.27;42.10;101813.66;4982761;28;46356;-71
2022/03/07 02:54:35;;;;;;;;;54.50;41.50;;;;;6.20;42.41;101799.53;4985747;28;45434;-66
2022/03/07 02:57:01;;;;;;;;;53.00;41.00;;;;;6.10;42.64;101771.41;4984413;28;45611;-69
2022/03/07 02:59:26;;;;;;;;;50.25;41.50;;;;;6.39;42.17;101813.22;4996475;28;45423;-77
2022/03/07 03:01:52;;;;;;;;;51.50;42.00;;;;;6.42;41.71;101810.72;4986441;28;45245;-76
2022/03/07 03:04:17;;;;;;;;;51.50;40.00;;;;;6.31;41.87;101782.59;5014102;28;45433;-76
2022/03/07 03:06:43;;;;;;;;;50.00;40.00;;;;;6.51;42.02;101811.03;5000339;28;45661;-74
2022/03/07 03:09:09;;;;;;;;;43.50;36.25;;;;;6.43;42.15;101789.03;5003520;28;45441;-76
2022/03/07 03:11:35;;;;;;;;;52.50;40.75;;;;;6.51;41.51;101792.81;5003158;28;45278;-72
2022/03/07 03:14:02;;;;;;;;;50.00;40.75;;;;;6.53;41.72;101814.59;4989379;28;45731;-73
2022/03/07 03:16:28;;;;;;;;;49.50;39.25;;;;;6.43;41.90;101802.97;4983687;28;45340;-74
2022/03/07 03:18:53;;;;;;;;;54.00;41.00;;;;;6.27;42.10;101798.91;4995367;28;45499;-76
2022/03/07 03:21:20;;;;;;;;;56.25;44.00;;;;;6.22;42.03;101786.56;4979157;28;45731;-77
2022/03/07 03:23:47;;;;;;;;;51.25;42.25;;;;;6.16;42.14;101776.81;4996184;28;45425;-77
2022/03/07 03:26:13;;;;;;;;;49.75;40.50;;;;;6.16;42.35;101788.09;4985480;28;45759;-78
2022/03/07 03:28:39;;;;;;;;;52.75;39.25;;;;;6.26;42.21;101802.31;4980260;28;45560;-76
2022/03/07 03:31:06;;;;;;;;;47.75;39.00;;;;;6.30;42.41;101795.53;4997360;28;45366;-71
2022/03/07 03:33:32;;;;;;;;;53.50;40.75;;;;;6.25;42.22;101784.06;4992825;28;45466;-77
2022/03/07 03:35:58;;;;;;;;;48.50;39.25;;;;;6.34;42.05;101798.31;5006489;28;45340;-72
2022/03/07 03:38:24;;;;;;;;;53.25;40.75;;;;;6.31;42.26;101798.19;4999912;28;45651;-76
2022/03/07 03:40:50;;;;;;;;;50.00;38.50;;;;;6.32;41.89;101799.09;5001169;28;45734;-72
2022/03/07 03:43:16;;;;;;;;;50.00;38.75;;;;;6.24;42.50;101785.81;4984530;28;45615;-77
2022/03/07 03:45:41;;;;;;;;;48.75;37.75;;;;;6.35;41.90;101802.66;4980021;28;45722;-75
2022/03/07 03:48:07;;;;;;;;;50.00;41.75;;;;;6.37;41.98;101803.59;4993935;28;45399;-74
2022/03/07 03:50:33;;;;;;;;;54.25;41.75;;;;;6.28;41.89;101813.69;4991541;28;45506;-75
2022/03/07 03:52:59;;;;;;;;;50.75;41.75;;;;;6.25;42.02;101810.97;5013969;28;45407;-76
2022/03/07 03:55:24;;;;;;;;;48.00;39.00;;;;;6.16;42.10;101803.69;5002109;28;45608;-75
2022/03/07 03:57:50;;;;;;;;;47.50;39.25;;;;;5.87;42.19;101758.38;4999048;28;45548;-74
2022/03/07 04:00:17;;;;;;;;;45.75;36.25;;;;;6.11;41.95;101800.06;4990532;28;45665;-77
2022/03/07 04:02:43;;;;;;;;;44.25;35.75;;;;;5.85;42.72;101754.84;4997070;28;46823;-77
2022/03/07 04:05:13;;;;;;;;;51.00;40.00;;;;;6.06;42.77;101811.13;4981597;28;45296;-73
2022/03/07 04:07:39;;;;;;;;;50.75;40.00;;;;;5.83;42.93;101815.41;5002708;28;45601;-72
2022/03/07 04:10:06;;;;;;;;;49.00;40.25;;;;;5.61;42.50;101775.59;4977254;28;45434;-70
2022/03/07 04:12:32;;;;;;;;;48.25;39.50;;;;;5.86;42.82;101816.44;4994835;28;45496;-75
2022/03/07 04:14:58;;;;;;;;;47.00;37.75;;;;;5.85;42.72;101804.22;4990632;28;45520;-74
2022/03/07 04:17:23;;;;;;;;;48.00;36.50;;;;;5.96;43.13;101817.69;4983473;28;45303;-76
2022/03/07 04:19:49;;;;;;;;;50.75;39.75;;;;;6.03;42.90;101811.91;4996173;28;45707;-72
2022/03/07 04:22:15;;;;;;;;;49.25;36.75;;;;;5.95;42.84;101797.69;4997993;28;45743;-74
2022/03/07 04:24:41;;;;;;;;;49.00;39.75;;;;;5.95;42.38;101785.56;4996819;28;47061;-76
2022/03/07 04:27:07;;;;;;;;;46.75;36.50;;;;;5.68;42.03;101735.13;4994473;28;45629;-76
2022/03/07 04:29:33;;;;;;;;;49.00;39.00;;;;;6.08;42.68;101817.28;4979000;28;45533;-78
2022/03/07 04:31:59;;;;;;;;;51.50;39.25;;;;;6.08;42.48;101806.88;4979070;28;45483;-75
2022/03/07 04:34:25;;;;;;;;;49.00;38.75;;;;;5.70;42.35;101749.06;4995751;28;45535;-73
2022/03/07 04:36:50;;;;;;;;;51.00;40.50;;;;;5.95;42.44;101810.72;4992478;28;45526;-71
2022/03/07 04:39:16;;;;;;;;;48.75;38.50;;;;;6.01;42.14;101808.34;4985319;28;45582;-73
2022/03/07 04:41:44;;;;;;;;;46.50;36.50;;;;;6.06;42.52;101817.19;4988430;28;45503;-76
2022/03/07 04:44:14;;;;;;;;;48.25;38.50;;;;;6.08;42.77;101823.34;4978540;28;45867;-78
2022/03/07 04:46:39;;;;;;;;;51.25;41.25;;;;;6.01;42.19;101817.88;4997718;28;45233;-72
2022/03/07 04:49:10;;;;;;;;;50.75;40.00;;;;;5.71;42.32;101792.41;4980591;28;46033;-75
2022/03/07 04:51:36;;;;;;;;;51.75;39.25;;;;;5.77;42.69;101800.47;4993158;28;45619;-72
2022/03/07 04:54:03;;;;;;;;;50.75;41.25;;;;;5.88;42.31;101824.25;4976385;28;45516;-75
2022/03/07 04:56:28;;;;;;;;;50.50;39.00;;;;;5.87;42.71;101814.72;4986317;28;45463;-73
2022/03/07 04:58:54;;;;;;;;;52.75;40.50;;;;;5.79;42.90;101824.81;4980453;28;46087;-76
2022/03/07 05:01:20;;;;;;;;;52.50;40.25;;;;;5.59;42.57;101791.94;4980942;28;47016;-76
2022/03/07 05:03:45;;;;;;;;;42.75;36.00;;;;;5.79;42.43;101827.41;5011741;28;45601;-74
2022/03/07 05:06:11;;;;;;;;;51.00;43.00;;;;;5.72;42.84;101828.00;4995297;28;45386;-74
2022/03/07 05:08:39;;;;;;;;;45.50;36.50;;;;;5.50;43.40;101784.66;5006855;28;48054;-74
2022/03/07 05:11:05;;;;;;;;;53.25;42.50;;;;;5.58;43.07;101803.19;4993515;28;45938;-70
2022/03/07 05:13:32;;;;;;;;;51.33;41.00;;;;;5.55;42.93;101823.84;4984123;28;45397;-73
2022/03/07 05:15:58;;;;;;;;;52.75;41.00;;;;;5.44;43.21;101818.22;5006057;28;45454;-74
2022/03/07 05:18:23;;;;;;;;;55.00;41.50;;;;;5.31;43.83;101819.41;4980749;28;46174;-76
2022/03/07 05:20:49;;;;;;;;;54.33;42.00;;;;;5.23;43.83;101828.63;4979443;28;45395;-77
2022/03/07 05:23:15;;;;;;;;;57.33;44.33;;;;;5.08;44.28;101827.16;4991996;28;45564;-76
2022/03/07 05:25:40;;;;;;;;;51.67;42.00;;;;;4.91;44.20;101809.09;4995704;28;45342;-77
2022/03/07 05:28:07;;;;;;;;;51.33;40.67;;;;;5.01;43.99;101824.25;4993105;28;45559;-75
2022/03/07 05:30:32;;;;;;;;;54.25;41.75;;;;;4.78;44.18;101799.91;4985733;28;45526;-77
2022/03/07 05:32:58;;;;;;;;;57.67;43.67;;;;;4.87;44.36;101816.75;4991472;28;45423;-77
2022/03/07 05:35:25;;;;;;;;;50.67;40.67;;;;;4.84;44.58;101834.81;4991798;28;45289;-76
2022/03/07 05:37:50;;;;;;;;;52.33;41.33;;;;;4.61;45.21;101802.66;4979822;28;48117;-78
2022/03/07 05:40:17;;;;;;;;;51.33;40.00;;;;;4.70;45.00;101832.41;4991121;28;45480;-76
2022/03/07 05:42:43;;;;;;;;;54.67;44.67;;;;;4.52;45.02;101819.53;4979598;28;45345;-73
2022/03/07 05:45:11;;;;;;;;;49.00;41.67;;;;;4.42;45.74;101813.06;4993540;28;45446;-78
2022/03/07 05:47:38;;;;;;;;;52.67;42.33;;;;;4.27;45.14;101802.88;4993968;28;45971;-70
2022/03/07 05:50:04;;;;;;;;;52.00;42.67;;;;;4.48;45.63;101826.28;4979384;28;45496;-73
2022/03/07 05:52:30;;;;;;;;;49.33;37.33;;;;;4.46;45.25;101821.06;4999060;28;46199;-75
2022/03/07 05:54:56;;;;;;;;;56.00;42.67;;;;;4.10;45.65;101771.00;4999024;28;45509;-68
2022/03/07 05:57:22;;;;;;;;;53.67;43.00;;;;;4.36;45.45;101828.34;4981564;28;46025;-75
2022/03/07 05:59:48;;;;;;;;;57.67;44.00;;;;;4.22;45.86;101820.84;4990770;28;45503;-67
2022/03/07 06:02:13;;;;;;;;;57.67;44.00;;;;;4.22;46.70;101833.81;4977961;28;45296;-74
2022/03/07 06:04:39;;;;;;;;;60.33;45.33;;;;;4.18;45.86;101839.66;4998609;28;45596;-78
2022/03/07 06:07:05;;;;;;;;;52.67;43.67;;;;;3.99;46.10;101817.19;4988289;28;45672;-66
2022/03/07 06:09:30;;;;;;;;;48.33;41.00;;;;;3.95;46.39;101812.69;4974870;28;45466;-74
2022/03/07 06:11:56;;;;;;;;;59.33;44.00;;;;;4.13;46.16;101848.94;4985304;28;45560;-76
2022/03/07 06:14:21;;;;;;;;;55.00;44.00;;;;;3.97;46.51;101842.16;4974835;28;45976;-78
2022/03/07 06:16:47;;;;;;;;;56.67;43.33;;;;;3.99;46.77;101850.00;4978748;28;46009;-76
2022/03/07 06:19:13;;;;;;;;;59.00;44.00;;;;;3.94;46.56;101847.22;5002826;28;45138;-73
2022/03/07 06:21:38;;;;;;;;;57.67;44.67;;;;;3.88;46.92;101839.13;4986163;28;44995;-75
2022/03/07 06:24:05;;;;;;;;;55.33;41.33;;;;;3.93;46.97;101860.09;4994575;28;45316;-74
2022/03/07 06:26:30;;;;;;;;;54.67;42.00;;;;;3.99;46.49;101856.09;4993947;28;46413;-77
2022/03/07 06:28:56;;;;;;;;;55.00;42.67;;;;;3.97;47.43;101847.34;4978419;28;45513;-75
2022/03/07 06:31:22;;;;;;;;;56.67;43.00;;;;;3.87;46.81;101839.03;4998558;28;45370;-75
2022/03/07 06:33:47;;;;;;;;;51.33;41.00;;;;;3.81;47.34;101835.34;4979140;28;45446;-67
2022/03/07 06:36:13;;;;;;;;;52.33;42.67;;;;;3.97;46.91;101855.13;4988220;28;45805;-66
2022/03/07 06:38:39;;;;;;;;;55.00;41.33;;;;;3.89;47.10;101840.94;4994219;28;45600;-65
2022/03/07 06:41:06;;;;;;;;;48.33;38.00;;;;;4.04;47.28;101851.13;4993870;28;45529;-71
2022/03/07 06:43:32;;;;;;;;;52.00;42.67;;;;;3.98;46.96;101837.84;4995254;28;45621;-67
2022/03/07 06:45:58;;;;;;;;;48.67;39.00;;;;;4.18;45.97;101859.53;4995483;28;46106;-65
2022/03/07 06:48:24;;;;;;;;;53.00;43.00;;;;;4.23;46.82;101866.69;4997907;28;45438;-75
2022/03/07 06:50:49;;;;;;;;;54.00;41.67;;;;;4.28;46.69;101866.91;4988435;28;45627;-74
2022/03/07 06:53:15;;;;;;;;;55.00;44.00;;;;;4.30;46.67;101870.47;4988538;28;45628;-77
2022/03/07 06:55:41;;;;;;;;;46.00;37.67;;;;;4.20;46.24;101834.53;4976625;28;46116;-76
2022/03/07 06:58:06;;;;;;;;;51.67;43.33;;;;;4.38;45.97;101856.13;4993983;28;45367;-78
2022/03/07 07:00:32;;;;;;;;;56.00;43.33;;;;;4.47;46.15;101858.25;5011379;28;45523;-73
2022/03/07 07:03:10;;;;;;;;;51.33;42.33;;;;;4.50;45.53;101862.69;4992086;28;45608;-72
2022/03/07 07:05:36;;;;;;;;;58.00;45.67;;;;;4.42;45.12;101850.25;4983323;28;45329;-74
2022/03/07 07:08:01;;;;;;;;;57.00;44.67;;;;;4.39;45.36;101846.63;4988792;28;45859;-71
2022/03/07 07:10:27;;;;;;;;;57.67;46.00;;;;;4.45;45.42;101859.88;4993825;28;45369;-77
2022/03/07 07:12:53;;;;;;;;;63.33;47.00;;;;;4.12;45.62;101816.03;4994206;28;45445;-74
2022/03/07 07:15:19;;;;;;;;;58.00;44.67;;;;;4.34;45.96;101867.19;4974996;28;46251;-78
2022/03/07 07:17:45;;;;;;;;;56.67;43.00;;;;;4.23;45.47;101842.47;4985435;28;45801;-75
2022/03/07 07:20:12;;;;;;;;;56.67;42.00;;;;;4.39;45.77;101849.22;4993174;28;45700;-74
2022/03/07 07:22:39;;;;;;;;;56.67;43.67;;;;;3.97;46.02;101761.81;4988336;28;45614;-77
2022/03/07 07:25:06;;;;;;;;;51.67;39.00;;;;;4.62;44.97;101853.72;4975432;28;46547;-78
2022/03/07 07:27:32;;;;;;;;;56.33;44.33;;;;;4.68;45.07;101850.53;4982689;28;45787;-76
2022/03/07 07:29:58;;;;;;;;;56.67;44.67;;;;;4.59;44.72;101832.84;4983113;28;45412;-74
2022/03/07 07:32:24;;;;;;;;;59.67;45.00;;;;;4.46;44.73;101817.53;4982901;28;45376;-78
2022/03/07 07:34:50;;;;;;;;;56.00;43.67;;;;;4.69;45.24;101857.47;4995584;28;45558;-75
2022/03/07 07:37:15;;;;;;;;;58.00;44.33;;;;;4.55;45.37;101824.84;4982055;28;45547;-75
2022/03/07 07:39:41;;;;;;;;;52.33;42.33;;;;;4.51;44.84;101823.84;4998895;28;45455;-79
2022/03/07 07:42:07;;;;;;;;;52.67;42.00;;;;;4.58;44.55;101835.34;4990014;28;45501;-76
2022/03/07 07:44:32;;;;;;;;;58.00;45.67;;;;;4.70;44.72;101864.47;4986576;28;45391;-76
2022/03/07 07:46:58;;;;;;;;;58.00;43.67;;;;;4.70;44.47;101860.97;4982845;28;45497;-77
2022/03/07 07:49:24;;;;;;;;;53.33;42.67;;;;;4.64;44.54;101852.09;4994326;28;45396;-76
2022/03/07 07:51:53;;;;;;;;;59.67;43.67;;;;;4.73;44.65;101862.00;4998133;28;45396;-76
2022/03/07 07:54:19;;;;;;;;;62.00;45.33;;;;;4.44;44.88;101829.59;4996456;28;46831;-75
2022/03/07 07:56:45;;;;;;;;;57.33;46.00;;;;;4.54;44.45;101836.94;4995041;28;45467;-75
2022/03/07 07:59:11;;;;;;;;;55.67;41.33;;;;;4.52;44.57;101848.09;4998974;28;45416;-77
2022/03/07 08:01:37;;;;;;;;;28.67;19.00;;;;;4.57;44.58;101859.53;4997702;28;45857;-76
2022/03/07 08:04:14;;;;;;;;;50.33;41.67;;;;;4.41;43.91;101845.00;4997674;28;45541;-78
2022/03/07 08:06:41;;;;;;;;;56.33;43.33;;;;;4.15;44.13;101802.31;4997800;28;45521;-74
2022/03/07 08:09:06;;;;;;;;;57.33;45.00;;;;;4.48;43.76;101860.00;4998732;28;45537;-77
2022/03/07 08:11:32;;;;;;;;;56.00;44.33;;;;;4.51;43.86;101860.16;4997935;28;45570;-74
2022/03/07 08:13:58;;;;;;;;;59.00;46.33;;;;;4.25;43.94;101801.94;4997787;28;46362;-72
2022/03/07 08:16:25;;;;;;;;;56.00;40.67;;;;;4.09;43.87;101778.72;5000801;28;45385;-73
2022/03/07 08:18:55;;;;;;;;;58.33;45.00;;;;;4.51;43.53;101854.97;5002121;28;45569;-74
2022/03/07 08:21:25;;;;;;;;;57.67;45.33;;;;;4.37;44.24;101833.59;5000715;28;45460;-74
2022/03/07 08:23:54;;;;;;;;;56.33;46.00;;;;;4.51;43.62;101852.38;5002738;28;45523;-77
2022/03/07 08:26:24;;;;;;;;;58.33;44.00;;;;;4.54;44.79;101849.91;5005534;28;45571;-66
2022/03/07 08:28:53;;;;;;;;;57.00;43.67;;;;;4.50;44.42;101837.63;5002554;28;45436;-75
2022/03/07 08:31:19;;;;;;;;;50.67;42.33;;;;;4.62;44.00;101851.13;5002987;28;45554;-74
2022/03/07 08:33:45;;;;;;;;;55.33;45.00;;;;;4.43;43.25;101822.59;5003213;28;45288;-73
2022/03/07 08:36:10;;;;;;;;;58.00;45.00;;;;;4.70;44.04;101853.19;4999599;28;46836;-76
2022/03/07 08:38:36;;;;;;;;;55.33;43.00;;;;;4.67;43.67;101856.53;5000219;28;44835;-77
2022/03/07 08:41:02;;;;;;;;;54.00;42.67;;;;;4.57;43.19;101833.59;5002227;28;45173;-75
2022/03/07 08:43:28;;;;;;;;;54.33;43.67;;;;;4.73;43.53;101850.75;5001180;28;45256;-75
2022/03/07 08:45:54;;;;;;;;;52.00;42.33;;;;;4.70;43.59;101835.91;4996762;28;45933;-77
2022/03/07 08:48:24;;;;;;;;;59.00;44.33;;;;;4.66;42.69;101816.72;4997371;28;45344;-76
2022/03/07 08:50:49;;;;;;;;;54.00;42.67;;;;;4.80;43.11;101835.50;4977826;28;45486;-67
2022/03/07 08:53:18;;;;;;;;;51.00;41.33;;;;;4.81;42.48;101819.06;4980790;28;45356;-73
2022/03/07 08:55:44;;;;;;;;;55.67;44.33;;;;;4.93;42.59;101839.47;5010585;28;45304;-72
2022/03/07 08:58:12;;;;;;;;;55.00;42.00;;;;;4.95;42.44;101835.25;4992296;28;45316;-75
2022/03/07 09:00:39;;;;;;;;;52.67;43.00;;;;;4.89;42.76;101816.84;4996833;28;45489;-74
2022/03/07 09:03:04;;;;;;;;;54.67;43.00;;;;;5.10;42.55;101833.31;4998245;28;45527;-70
2022/03/07 09:05:31;;;;;;;;;52.00;42.00;;;;;5.10;42.93;101801.25;5004454;28;45521;-71
2022/03/07 09:07:57;;;;;;;;;56.67;43.33;;;;;5.28;42.23;101816.69;5002317;28;45513;-73
2022/03/07 09:10:26;;;;;;;;;53.00;44.67;;;;;5.29;42.02;101824.56;4998155;28;45508;-69
2022/03/07 09:12:54;;;;;;;;;58.00;42.67;;;;;5.20;41.46;101795.63;4999202;28;46063;-72
2022/03/07 09:15:19;;;;;;;;;54.67;43.00;;;;;5.51;41.62;101825.44;4996090;28;45498;-69
2022/03/07 09:17:51;;;;;;;;;58.00;45.00;;;;;5.31;41.50;101796.03;4996893;28;45810;-76
2022/03/07 09:20:19;;;;;;;;;54.00;42.00;;;;;5.56;40.85;101833.41;4996292;28;45530;-72
2022/03/07 09:22:51;;;;;;;;;52.00;43.33;;;;;5.37;40.91;101793.69;4995916;28;45977;-74
2022/03/07 09:25:20;;;;;;;;;59.67;44.33;;;;;5.21;41.30;101750.63;4995663;28;46389;-75
2022/03/07 09:27:50;;;;;;;;;53.00;42.33;;;;;5.53;40.92;101814.28;4996541;28;45398;-64
2022/03/07 09:30:16;;;;;;;;;51.00;40.00;;;;;5.44;41.66;101794.84;4996250;28;45479;-69
2022/03/07 09:32:42;;;;;;;;;58.33;45.67;;;;;5.83;40.84;101831.88;4995801;28;45423;-77
2022/03/07 09:35:09;;;;;;;;;55.33;42.67;;;;;5.87;40.71;101825.97;5014608;28;45852;-69
2022/03/07 09:37:34;;;;;;;;;51.50;38.50;;;;;6.02;40.29;101825.72;4998572;28;45917;-70
2022/03/07 09:40:01;;;;;;;;;51.33;40.67;;;;;5.94;40.02;101778.63;4996854;28;45526;-70
2022/03/07 09:42:27;;;;;;;;;51.75;40.50;;;;;6.35;40.31;101820.88;5013388;28;45671;-71
2022/03/07 09:44:54;;;;;;;;;57.00;41.50;;;;;6.41;39.10;101824.53;4997619;28;45574;-72
2022/03/07 09:47:23;;;;;;;;;51.00;41.50;;;;;6.32;38.51;101797.34;4995362;28;45478;-74
2022/03/07 09:49:53;;;;;;;;;48.00;38.50;;;;;6.43;38.92;101796.84;4995227;28;45426;-67
2022/03/07 09:52:21;;;;;;;;;53.00;43.67;;;;;6.68;38.88;101809.03;4994336;28;45780;-66
2022/03/07 09:54:48;;;;;;;;;56.00;42.50;;;;;6.74;37.57;101812.75;4994143;28;45409;-69
2022/03/07 09:57:14;;;;;;;;;55.50;41.00;;;;;6.70;37.47;101804.78;4994672;28;46303;-70
2022/03/07 09:59:40;;;;;;;;;53.75;40.25;;;;;6.66;37.30;101788.13;4995027;28;45355;-73
2022/03/07 10:02:18;;;;;;;;;51.25;40.25;;;;;6.83;37.33;101787.84;4994748;28;45724;-75
2022/03/07 10:04:45;;;;;;;;;53.00;41.75;;;;;6.95;36.84;101773.53;4993586;28;45359;-72
2022/03/07 10:07:12;;;;;;;;;48.50;37.00;;;;;7.28;37.23;101804.09;4994655;28;45515;-71
2022/03/07 10:09:38;;;;;;;;;52.50;40.25;;;;;7.46;36.43;101796.00;5014988;28;45417;-71
2022/03/07 10:12:04;;;;;;;;;51.00;38.75;;;;;7.50;36.11;101764.00;4999346;28;45420;-75
2022/03/07 10:14:47;;;;;;;;;50.00;41.00;;;;;7.75;34.78;101776.03;4999710;28;45434;-75
2022/03/07 10:17:17;;;;;;;;;49.00;39.25;;;;;7.90;35.18;101796.50;5001039;28;45394;-66
2022/03/07 10:19:44;;;;;;;;;48.50;38.25;;;;;8.07;35.04;101786.56;4994738;28;45482;-66
2022/03/07 10:22:14;;;;;;;;;48.75;39.50;;;;;7.96;34.66;101738.41;4995067;28;46385;-67
2022/03/07 10:24:40;;;;;;;;;44.50;37.25;;;;;8.36;33.79;101763.00;5013142;28;45333;-68
2022/03/07 10:27:05;;;;;;;;;46.25;36.50;;;;;8.65;34.10;101784.69;4998903;28;45347;-67
2022/03/07 10:29:31;;;;;;;;;48.25;39.00;;;;;8.62;33.15;101748.94;4999909;28;45425;-70
2022/03/07 10:31:57;;;;;;;;;43.50;36.00;;;;;8.81;33.69;101758.16;4998485;28;45907;-67
2022/03/07 10:34:25;;;;;;;;;46.50;38.00;;;;;8.97;32.90;101746.34;4997155;28;45352;-66
2022/03/07 10:36:51;;;;;;;;;51.75;39.00;;;;;9.57;32.46;101768.69;4993351;28;45812;-67
2022/03/07 10:39:25;;;;;;;;;47.75;39.00;;;;;11.15;29.83;101771.78;4994029;28;45562;-65
2022/03/07 10:41:50;;;;;;;;;46.25;36.50;;;;;12.67;27.88;101765.91;4993774;28;45324;-66
2022/03/07 10:44:31;;;;;;;;;42.50;35.75;;;;;13.86;25.91;101712.38;4993698;28;45449;-74
2022/03/07 10:47:07;;;;;;;;;45.25;37.25;;;;;14.79;24.59;101695.91;4994048;28;45402;-75
2022/03/07 10:49:33;;;;;;;;;50.25;38.50;;;;;15.67;22.89;101703.66;4996238;28;45473;-76
2022/03/07 10:52:03;;;;;;;;;48.50;39.25;;;;;16.19;22.67;101744.88;5011254;28;45490;-76
2022/03/07 10:54:29;;;;;;;;;50.50;41.75;;;;;16.19;22.43;101748.38;4993732;28;45633;-73
2022/03/07 10:56:55;;;;;;;;;53.50;40.50;;;;;16.03;22.38;101744.91;4994248;28;45692;-77
2022/03/07 10:59:32;;;;;;;;;35.75;35.25;;;;;16.67;22.35;101748.09;4994829;28;45470;-75
2022/03/07 11:02:11;;;;;;;;;39.25;35.00;;;;;17.50;21.19;101729.72;4998072;28;45391;-73
2022/03/07 11:04:38;;;;;;;;;40.25;35.75;;;;;17.44;20.65;101690.06;5001331;28;45445;-72
2022/03/07 11:07:06;;;;;;;;;37.25;33.25;;;;;16.99;20.81;101742.59;4998986;28;45327;-72
2022/03/07 11:09:32;;;;;;;;;44.75;37.25;;;;;16.48;21.44;101747.34;4997073;28;45353;-74
2022/03/07 11:11:59;;;;;;;;;42.50;35.50;;;;;16.22;21.75;101734.25;5001867;28;45465;-74
2022/03/07 11:14:27;;;;;;;;;41.50;35.75;;;;;15.88;21.73;101740.59;5003080;28;45855;-75